Time;durP1;ratioP1;P1;durP2;ratioP2;P2;SDS_P1;SDS_P2;PMS_P1;PMS_P2;Temp;Humidity;BMP_temperature;BMP_pressure;BME280_temperature;BME280_humidity;BME280_pressure;Samples;Min_cycle;Max_cycle;Signal;HPM_P1;HPM_P2
2024/02/16 00:01:18;;;;;;;101.60;40.60;;;;;;;8.07;79.20;100689.50;130828;1257;108513;-80
2024/02/16 00:04:24;;;;;;;47.00;22.90;;;;;;;8.01;79.13;100688.44;131113;1256;108533;-78
2024/02/16 00:07:29;;;;;;;74.30;34.40;;;;;;;7.93;79.06;100687.50;131060;1256;107748;-78
2024/02/16 00:10:35;;;;;;;32.50;18.60;;;;;;;7.84;79.06;100685.20;130947;1252;108683;-79
2024/02/16 00:13:40;;;;;;;31.20;17.30;;;;;;;7.73;79.30;100686.83;130892;1257;106581;-79
2024/02/16 00:16:46;;;;;;;23.70;14.10;;;;;;;7.64;79.29;100684.89;130973;1253;107746;-78
2024/02/16 00:19:51;;;;;;;48.70;26.90;;;;;;;7.59;79.38;100685.84;130990;1257;107910;-79
2024/02/16 00:22:57;;;;;;;31.90;17.30;;;;;;;7.57;79.29;100683.52;131097;1256;106283;-78
2024/02/16 00:26:07;;;;;;;34.60;19.60;;;;;;;7.56;79.27;100681.45;130901;1254;108662;-78
2024/02/16 00:29:12;;;;;;;39.10;21.60;;;;;;;7.53;79.28;100678.16;130886;1256;108574;-77
2024/02/16 00:32:18;;;;;;;35.80;20.60;;;;;;;7.50;79.19;100676.61;130856;1256;107560;-78
2024/02/16 00:35:23;;;;;;;30.70;18.90;;;;;;;7.45;79.33;100674.70;130999;1254;107683;-77
2024/02/16 00:38:29;;;;;;;37.00;23.20;;;;;;;7.39;79.33;100675.02;130846;1257;107697;-79
2024/02/16 00:41:34;;;;;;;37.60;19.50;;;;;;;7.33;79.28;100673.20;130823;1267;108655;-78
2024/02/16 00:44:40;;;;;;;27.90;15.80;;;;;;;7.29;79.47;100671.55;130829;1252;108662;-77
2024/02/16 00:47:46;;;;;;;43.50;24.00;;;;;;;7.26;79.42;100673.17;130907;1258;108655;-80
2024/02/16 00:50:51;;;;;;;32.50;19.70;;;;;;;7.27;79.45;100674.52;131096;1254;108382;-80
2024/02/16 00:53:57;;;;;;;30.80;18.50;;;;;;;7.27;79.19;100672.23;130998;1267;107755;-78
2024/02/16 00:57:03;;;;;;;31.10;18.00;;;;;;;7.27;79.45;100672.77;130929;1257;107161;-79
2024/02/16 01:00:10;;;;;;;40.80;23.60;;;;;;;7.25;79.31;100673.63;130933;1254;106730;-78
2024/02/16 01:03:16;;;;;;;28.60;17.70;;;;;;;7.20;79.16;100676.36;131145;1255;108627;-79
2024/02/16 01:06:22;;;;;;;33.90;22.40;;;;;;;7.16;79.50;100675.23;131039;1257;107706;-78
2024/02/16 01:09:27;;;;;;;36.50;21.20;;;;;;;7.09;79.37;100672.40;131090;1258;106992;-78
2024/02/16 01:12:33;;;;;;;29.10;17.90;;;;;;;7.02;79.49;100671.54;131056;1257;107772;-78
2024/02/16 01:15:39;;;;;;;28.60;16.80;;;;;;;6.98;79.42;100677.52;130988;1253;107023;-77
2024/02/16 01:18:45;;;;;;;31.10;18.80;;;;;;;6.97;79.48;100677.64;130913;1254;106415;-79
2024/02/16 01:21:52;;;;;;;78.20;42.80;;;;;;;6.98;79.57;100676.84;130906;1258;108805;-78
2024/02/16 01:24:58;;;;;;;106.80;44.70;;;;;;;7.00;79.56;100676.43;130888;1255;108537;-78
2024/02/16 01:28:04;;;;;;;57.40;27.90;;;;;;;7.00;79.31;100674.88;130858;1254;107536;-78
2024/02/16 01:31:10;;;;;;;35.50;21.00;;;;;;;6.96;79.17;100671.87;130891;1257;106913;-79
2024/02/16 01:34:16;;;;;;;37.40;20.80;;;;;;;6.91;79.49;100673.80;131021;1256;106713;-78
2024/02/16 01:37:21;;;;;;;30.00;18.20;;;;;;;6.88;79.86;100674.73;131148;1257;107606;-77
2024/02/16 01:40:27;;;;;;;26.90;17.00;;;;;;;6.84;79.45;100676.61;131045;1254;107386;-77
2024/02/16 01:43:33;;;;;;;28.00;15.60;;;;;;;6.80;79.75;100676.96;130838;1254;108650;-79
2024/02/16 01:46:38;;;;;;;23.40;14.30;;;;;;;6.74;79.71;100675.42;130912;1257;107827;-77
2024/02/16 01:49:44;;;;;;;23.80;13.70;;;;;;;6.69;79.80;100675.48;130940;1256;107623;-78
2024/02/16 01:52:50;;;;;;;22.50;13.90;;;;;;;6.67;79.92;100668.23;131002;1257;108744;-77
2024/02/16 01:55:57;;;;;;;24.50;15.30;;;;;;;6.65;79.84;100665.33;131036;1257;108095;-81
2024/02/16 01:59:02;;;;;;;25.30;14.80;;;;;;;6.67;79.85;100669.27;130983;1257;106728;-79
2024/02/16 02:02:09;;;;;;;24.00;15.20;;;;;;;6.67;79.94;100667.29;131037;1256;108526;-77
2024/02/16 02:05:14;;;;;;;25.30;15.80;;;;;;;6.67;79.71;100665.26;131108;1264;106769;-79
2024/02/16 02:08:20;;;;;;;27.40;15.80;;;;;;;6.64;79.69;100668.75;131008;1264;108637;-80
2024/02/16 02:11:25;;;;;;;25.90;15.60;;;;;;;6.62;79.89;100669.14;131035;1256;108323;-80
2024/02/16 02:14:31;;;;;;;23.80;14.90;;;;;;;6.58;79.85;100671.38;130984;1257;106785;-78
2024/02/16 02:17:37;;;;;;;22.80;13.20;;;;;;;6.54;80.00;100675.08;131046;1267;106594;-80
2024/02/16 02:20:42;;;;;;;20.30;12.60;;;;;;;6.51;79.73;100670.86;130617;1266;108437;-81
2024/02/16 02:23:48;;;;;;;24.40;14.10;;;;;;;6.51;80.04;100670.90;130906;1257;107163;-80
2024/02/16 02:26:54;;;;;;;25.60;14.50;;;;;;;6.53;79.99;100671.61;130976;1256;107666;-79
2024/02/16 02:30:00;;;;;;;22.60;14.40;;;;;;;6.56;79.72;100671.04;130981;1253;107514;-79
2024/02/16 02:33:07;;;;;;;23.20;15.10;;;;;;;6.57;79.95;100665.63;131031;1253;107984;-78
2024/02/16 02:36:12;;;;;;;23.00;14.80;;;;;;;6.57;79.80;100664.04;131093;1254;107007;-78
2024/02/16 02:39:18;;;;;;;25.20;14.40;;;;;;;6.56;80.07;100665.55;130935;1257;109269;-79
2024/02/16 02:42:24;;;;;;;23.80;14.70;;;;;;;6.54;79.88;100661.95;130962;1253;107604;-78
2024/02/16 02:45:30;;;;;;;22.30;14.10;;;;;;;6.51;79.99;100666.45;131006;1256;108441;-78
2024/02/16 02:48:35;;;;;;;24.10;14.30;;;;;;;6.46;80.03;100665.54;130970;1257;106247;-79
2024/02/16 02:51:41;;;;;;;22.60;13.00;;;;;;;6.42;80.03;100669.23;130947;1254;108296;-77
2024/02/16 02:54:46;;;;;;;22.50;13.30;;;;;;;6.39;79.88;100668.59;130912;1256;107678;-79
2024/02/16 02:57:52;;;;;;;20.50;12.70;;;;;;;6.37;79.73;100668.92;131016;1256;106841;-79
2024/02/16 03:00:58;;;;;;;23.60;14.70;;;;;;;6.39;79.80;100677.29;131191;1252;109357;-78
2024/02/16 03:04:03;;;;;;;20.70;13.50;;;;;;;6.40;79.69;100676.95;130912;1268;107687;-79
2024/02/16 03:07:09;;;;;;;23.90;14.00;;;;;;;6.40;79.77;100675.98;130970;1254;106587;-78
2024/02/16 03:10:20;;;;;;;22.50;14.20;;;;;;;6.39;79.76;100686.77;130969;1256;107750;-78
2024/02/16 03:13:26;;;;;;;23.50;13.90;;;;;;;6.35;79.44;100687.82;130985;1256;108671;-79
2024/02/16 03:16:32;;;;;;;22.90;14.40;;;;;;;6.30;79.63;100688.38;130972;1256;106116;-79
2024/02/16 03:19:38;;;;;;;23.90;14.50;;;;;;;6.25;79.90;100687.48;131009;1256;108472;-79
2024/02/16 03:22:43;;;;;;;20.60;14.00;;;;;;;6.21;79.82;100687.45;131067;1254;108473;-80
2024/02/16 03:25:49;;;;;;;21.90;14.60;;;;;;;6.17;79.74;100685.56;131057;1257;107620;-78
2024/02/16 03:28:55;;;;;;;21.20;12.80;;;;;;;6.11;79.60;100686.89;130945;1253;108650;-79
2024/02/16 03:32:01;;;;;;;21.00;12.80;;;;;;;6.06;79.46;100686.04;130948;1256;107466;-77
2024/02/16 03:35:08;;;;;;;23.60;13.70;;;;;;;6.03;79.40;100678.36;131111;1252;108687;-78
2024/02/16 03:38:14;;;;;;;23.30;13.90;;;;;;;6.03;79.72;100673.36;131058;1253;108688;-78
2024/02/16 03:41:22;;;;;;;23.60;14.20;;;;;;;6.06;79.63;100676.18;131044;1253;107837;-78
2024/02/16 03:44:27;;;;;;;23.10;14.60;;;;;;;6.05;79.79;100676.56;131020;1256;108583;-78
2024/02/16 03:47:33;;;;;;;22.10;13.80;;;;;;;6.04;79.35;100676.13;131005;1253;108482;-78
2024/02/16 03:50:38;;;;;;;24.00;15.10;;;;;;;5.99;79.15;100676.32;131042;1256;108786;-78
2024/02/16 03:53:44;;;;;;;23.10;14.10;;;;;;;5.95;79.26;100673.98;131258;1268;106638;-77
2024/02/16 03:56:53;;;;;;;24.80;14.60;;;;;;;5.87;79.15;100677.84;131190;1259;108585;-79
2024/02/16 03:59:59;;;;;;;23.20;14.70;;;;;;;5.81;79.46;100676.20;131082;1257;107760;-79
2024/02/16 04:03:05;;;;;;;24.00;15.20;;;;;;;5.74;79.33;100676.90;131084;1263;108633;-79
2024/02/16 04:06:11;;;;;;;23.70;15.20;;;;;;;5.67;79.44;100679.15;131097;1254;108758;-79
2024/02/16 04:09:17;;;;;;;21.80;13.10;;;;;;;5.61;79.42;100681.87;131057;1254;107560;-78
2024/02/16 04:12:22;;;;;;;23.30;13.20;;;;;;;5.55;79.26;100681.45;131079;1256;107002;-78
2024/02/16 04:15:28;;;;;;;22.60;14.40;;;;;;;5.50;79.23;100680.36;130994;1253;108502;-78
2024/02/16 04:18:33;;;;;;;23.80;14.80;;;;;;;5.50;79.49;100676.67;131165;1257;108629;-77
2024/02/16 04:21:39;;;;;;;24.90;15.10;;;;;;;5.49;79.47;100675.48;131047;1257;107821;-80
2024/02/16 04:24:45;;;;;;;23.50;14.90;;;;;;;5.47;79.25;100675.29;131046;1253;107699;-78
2024/02/16 04:27:50;;;;;;;25.00;15.20;;;;;;;5.45;79.30;100677.15;130854;1275;106668;-78
2024/02/16 04:30:56;;;;;;;26.50;15.40;;;;;;;5.42;79.27;100678.09;130917;1253;106671;-78
2024/02/16 04:34:02;;;;;;;25.20;15.80;;;;;;;5.37;79.14;100677.96;130956;1253;107079;-77
2024/02/16 04:37:08;;;;;;;28.20;16.60;;;;;;;5.30;79.12;100673.13;130845;1254;108596;-78
2024/02/16 04:40:14;;;;;;;26.70;15.80;;;;;;;5.23;79.20;100674.56;130948;1256;106431;-78
2024/02/16 04:43:19;;;;;;;24.40;15.70;;;;;;;5.17;79.27;100673.21;130879;1256;106857;-78
2024/02/16 04:46:26;;;;;;;26.10;15.70;;;;;;;5.14;79.13;100674.13;130904;1267;108626;-78
2024/02/16 04:49:32;;;;;;;25.60;14.70;;;;;;;5.11;79.43;100672.89;130938;1253;107428;-79
2024/02/16 04:52:40;;;;;;;26.40;14.50;;;;;;;5.08;79.39;100676.23;131004;1256;109094;-78
2024/02/16 04:55:46;;;;;;;22.80;14.10;;;;;;;5.07;79.45;100674.72;130934;1253;106219;-78
2024/02/16 04:58:51;;;;;;;25.40;15.30;;;;;;;5.07;79.27;100673.86;130845;1257;107866;-78
2024/02/16 05:01:57;;;;;;;23.30;15.00;;;;;;;5.08;79.34;100673.46;130878;1256;108722;-80
2024/02/16 05:05:03;;;;;;;23.50;14.70;;;;;;;5.07;79.09;100670.33;131204;1253;107588;-78
2024/02/16 05:08:10;;;;;;;21.90;13.90;;;;;;;5.07;79.22;100671.93;131039;1257;106247;-80
2024/02/16 05:11:15;;;;;;;28.20;16.10;;;;;;;5.03;78.96;100671.30;130996;1253;108247;-78
2024/02/16 05:14:21;;;;;;;21.90;14.10;;;;;;;4.99;79.08;100668.47;130860;1256;109399;-78
2024/02/16 05:17:27;;;;;;;21.80;13.60;;;;;;;4.93;78.95;100666.91;130861;1256;108709;-78
2024/02/16 05:20:32;;;;;;;23.00;14.90;;;;;;;4.88;79.14;100665.86;130951;1275;108582;-77
2024/02/16 05:23:38;;;;;;;20.30;13.30;;;;;;;4.85;79.29;100670.11;130932;1256;106424;-77
2024/02/16 05:26:44;;;;;;;24.90;14.10;;;;;;;4.82;79.13;100668.57;131010;1253;106405;-78
2024/02/16 05:29:51;;;;;;;22.30;13.40;;;;;;;4.79;79.26;100668.29;130950;1256;107588;-79
2024/02/16 05:32:58;;;;;;;26.20;15.10;;;;;;;4.75;79.28;100661.49;130812;1256;107609;-78
2024/02/16 05:36:04;;;;;;;22.40;12.70;;;;;;;4.73;79.28;100659.85;130855;1256;108880;-78
2024/02/16 05:39:20;;;;;;;29.80;17.50;;;;;;;4.72;79.10;100657.95;130886;1253;108609;-78
2024/02/16 05:42:26;;;;;;;29.60;18.80;;;;;;;4.71;79.42;100657.33;130550;1253;106872;-80
2024/02/16 05:45:31;;;;;;;31.30;17.50;;;;;;;4.73;79.57;100661.42;130634;1257;108470;-81
2024/02/16 05:48:40;;;;;;;29.70;16.50;;;;;;;4.72;79.56;100661.98;130660;1253;106786;-79
2024/02/16 05:52:17;;;;;;;28.30;17.60;;;;;;;4.70;79.47;100662.48;130786;1254;107596;-79
2024/02/16 05:55:12;;;;;;;28.30;17.60;;;;;;;4.67;79.67;100663.25;130788;1257;107548;-79
2024/02/16 05:58:18;;;;;;;28.00;17.30;;;;;;;4.66;79.51;100672.33;130675;1253;108807;-79
2024/02/16 06:01:24;;;;;;;27.20;16.50;;;;;;;4.62;79.39;100673.63;130986;1253;107816;-79
2024/02/16 06:04:30;;;;;;;27.60;16.10;;;;;;;4.61;79.26;100672.84;131014;1253;108556;-79
2024/02/16 06:07:38;;;;;;;25.50;14.40;;;;;;;4.57;79.06;100670.80;130969;1256;108753;-79
2024/02/16 06:10:44;;;;;;;25.80;15.70;;;;;;;4.54;78.95;100676.29;130940;1253;108613;-79
2024/02/16 06:13:49;;;;;;;26.70;14.80;;;;;;;4.54;78.96;100678.91;131091;1256;108898;-81
2024/02/16 06:16:55;;;;;;;24.50;14.70;;;;;;;4.57;79.01;100681.54;131044;1256;106481;-83
2024/02/16 06:20:01;;;;;;;23.00;14.20;;;;;;;4.62;78.80;100684.05;131080;1253;106481;-83
2024/02/16 06:23:08;;;;;;;23.10;14.20;;;;;;;4.64;78.85;100684.39;130977;1256;107654;-83
2024/02/16 06:26:14;;;;;;;23.70;14.60;;;;;;;4.67;78.86;100688.44;130954;1256;106599;-81
2024/02/16 06:29:20;;;;;;;22.40;14.60;;;;;;;4.68;78.68;100689.75;131024;1253;108696;-82
2024/02/16 06:32:26;;;;;;;23.70;14.50;;;;;;;4.68;78.79;100689.43;131024;1253;107487;-82
2024/02/16 06:35:31;;;;;;;23.60;15.40;;;;;;;4.69;78.84;100695.70;131036;1256;108759;-81
2024/02/16 06:38:37;;;;;;;24.90;16.40;;;;;;;4.69;78.91;100697.29;130936;1254;107204;-81
2024/02/16 06:41:43;;;;;;;31.30;20.00;;;;;;;4.71;79.06;100697.17;130979;1256;108582;-84
2024/02/16 06:44:49;;;;;;;33.50;23.10;;;;;;;4.75;79.48;100699.74;131271;1253;106425;-82
2024/02/16 06:47:56;;;;;;;30.80;20.10;;;;;;;4.78;79.66;100698.99;130911;1253;107917;-82
2024/02/16 06:51:01;;;;;;;38.70;21.50;;;;;;;4.80;79.79;100702.36;131020;1254;108803;-81
2024/02/16 06:54:08;;;;;;;37.10;19.80;;;;;;;4.88;79.77;100704.12;130951;1252;106498;-81
2024/02/16 06:57:13;;;;;;;32.40;19.00;;;;;;;4.97;79.79;100701.23;130987;1256;108646;-82
2024/02/16 07:00:21;;;;;;;29.90;18.50;;;;;;;5.07;79.98;100702.77;130975;1254;106868;-83
2024/02/16 07:03:27;;;;;;;31.40;19.70;;;;;;;5.20;80.30;100702.46;131080;1259;106990;-82
2024/02/16 07:06:33;;;;;;;29.80;18.80;;;;;;;5.31;80.03;100704.48;131026;1253;107597;-82
2024/02/16 07:09:39;;;;;;;31.10;19.60;;;;;;;5.39;80.34;100705.86;131045;1256;107815;-82
2024/02/16 07:12:45;;;;;;;32.10;20.00;;;;;;;5.47;80.06;100706.86;130987;1256;107153;-82
2024/02/16 07:15:51;;;;;;;30.80;19.60;;;;;;;5.57;80.40;100703.52;130985;1275;106822;-81
2024/02/16 07:18:57;;;;;;;33.40;19.00;;;;;;;5.67;80.67;100702.97;131033;1253;108575;-81
2024/02/16 07:22:02;;;;;;;28.90;17.90;;;;;;;5.75;80.69;100701.69;130977;1256;105794;-83
2024/02/16 07:25:10;;;;;;;31.20;18.40;;;;;;;5.86;80.65;100699.81;130986;1253;108539;-81
2024/02/16 07:28:15;;;;;;;31.70;20.40;;;;;;;5.98;80.53;100700.23;130817;1253;107141;-82
2024/02/16 07:31:21;;;;;;;33.20;20.40;;;;;;;6.08;80.71;100700.08;130641;1257;108707;-81
2024/02/16 07:34:27;;;;;;;32.80;20.50;;;;;;;6.17;80.59;100703.06;131001;1256;107833;-81
2024/02/16 07:37:33;;;;;;;34.00;20.60;;;;;;;6.27;80.88;100704.64;130989;1256;107758;-81
2024/02/16 07:40:39;;;;;;;33.70;20.20;;;;;;;6.35;80.64;100702.65;131032;1256;108541;-81
2024/02/16 07:43:45;;;;;;;32.90;20.50;;;;;;;6.42;80.80;100705.30;130959;1253;107487;-82
2024/02/16 07:46:52;;;;;;;49.80;26.00;;;;;;;6.49;80.69;100709.21;130813;1257;108443;-82
2024/02/16 07:49:57;;;;;;;29.20;18.00;;;;;;;6.54;80.66;100702.28;131026;1256;106338;-82
2024/02/16 07:53:03;;;;;;;33.50;19.50;;;;;;;6.60;80.71;100705.39;131057;1267;107807;-82
2024/02/16 07:56:09;;;;;;;30.20;18.60;;;;;;;6.66;80.87;100704.66;131030;1256;106532;-82
2024/02/16 07:59:15;;;;;;;35.20;20.70;;;;;;;6.77;80.69;100703.21;131101;1254;108712;-81
2024/02/16 08:02:21;;;;;;;46.00;25.10;;;;;;;6.87;80.48;100703.13;130983;1253;106613;-81
2024/02/16 08:05:26;;;;;;;36.90;21.00;;;;;;;6.94;80.47;100698.36;131006;1256;107494;-82
2024/02/16 08:08:32;;;;;;;31.40;19.30;;;;;;;7.00;80.57;100697.00;130985;1256;107248;-82
2024/02/16 08:11:38;;;;;;;31.40;20.00;;;;;;;7.06;80.46;100697.23;130941;1253;108738;-82
2024/02/16 08:14:44;;;;;;;30.50;19.90;;;;;;;7.12;80.39;100696.44;130942;1266;107580;-82
2024/02/16 08:17:51;;;;;;;61.70;28.20;;;;;;;7.17;80.60;100698.38;131026;1256;107641;-82
2024/02/16 08:20:56;;;;;;;37.00;20.60;;;;;;;7.22;80.47;100697.91;131038;1253;106403;-82
2024/02/16 08:24:02;;;;;;;30.20;18.60;;;;;;;7.27;80.78;100701.06;131075;1256;108752;-83
2024/02/16 08:27:08;;;;;;;27.00;16.60;;;;;;;7.32;80.56;100700.17;131032;1253;108458;-82
2024/02/16 08:30:15;;;;;;;30.10;19.00;;;;;;;7.40;80.67;100695.83;131051;1256;107613;-82
2024/02/16 08:33:20;;;;;;;39.00;21.50;;;;;;;7.51;80.64;100694.61;130916;1256;107786;-82
2024/02/16 08:36:29;;;;;;;32.50;21.30;;;;;;;7.62;80.77;100697.58;130970;1275;107473;-82
2024/02/16 08:39:38;;;;;;;33.30;21.00;;;;;;;7.73;80.57;100697.98;130944;1256;106399;-82
2024/02/16 08:42:44;;;;;;;31.90;20.80;;;;;;;7.81;80.53;100694.61;131011;1253;106279;-81
2024/02/16 08:45:49;;;;;;;27.40;19.20;;;;;;;7.91;80.51;100698.85;130916;1253;107554;-81
2024/02/16 08:48:55;;;;;;;54.50;34.40;;;;;;;7.99;80.56;100695.13;130984;1256;107605;-82
2024/02/16 08:52:00;;;;;;;36.20;23.60;;;;;;;8.05;80.60;100695.19;130949;1253;108581;-81
2024/02/16 08:55:07;;;;;;;32.40;22.50;;;;;;;8.11;80.57;100693.14;131006;1256;106870;-82
2024/02/16 08:58:13;;;;;;;28.10;19.20;;;;;;;8.15;80.55;100685.32;130771;1259;107491;-81
2024/02/16 09:01:19;;;;;;;25.60;17.30;;;;;;;8.22;80.64;100683.90;130819;1269;108690;-81
2024/02/16 09:04:24;;;;;;;42.60;26.30;;;;;;;8.29;80.79;100686.11;130957;1259;107547;-82
2024/02/16 09:07:31;;;;;;;40.50;23.70;;;;;;;8.41;80.85;100683.90;131050;1256;108754;-81
2024/02/16 09:10:37;;;;;;;33.60;20.50;;;;;;;8.54;80.69;100679.77;131088;1253;107704;-81
2024/02/16 09:13:42;;;;;;;33.20;20.40;;;;;;;8.65;80.60;100675.83;131052;1254;107689;-81
2024/02/16 09:16:52;;;;;;;35.20;22.60;;;;;;;8.76;80.68;100672.64;130900;1256;108579;-82
2024/02/16 09:19:58;;;;;;;39.40;22.50;;;;;;;8.86;80.71;100671.80;131058;1254;107790;-82
2024/02/16 09:23:03;;;;;;;30.10;20.50;;;;;;;8.93;80.50;100663.71;130926;1256;107103;-82
2024/02/16 09:26:10;;;;;;;33.60;21.80;;;;;;;8.99;80.29;100663.91;130911;1256;108632;-81
2024/02/16 09:29:17;;;;;;;28.60;19.20;;;;;;;9.05;80.38;100664.83;130919;1254;108307;-83
2024/02/16 09:32:23;;;;;;;26.60;17.50;;;;;;;9.10;80.60;100663.85;130939;1253;106525;-82
2024/02/16 09:35:29;;;;;;;25.30;15.80;;;;;;;9.16;80.24;100660.98;131011;1253;110151;-82
2024/02/16 09:38:35;;;;;;;29.60;18.70;;;;;;;9.26;80.26;100663.94;130892;1256;108852;-82
2024/02/16 09:41:44;;;;;;;23.30;16.50;;;;;;;9.37;80.32;100668.77;130915;1256;108484;-82
2024/02/16 09:44:51;;;;;;;27.90;17.10;;;;;;;9.50;80.53;100670.83;130648;1258;107587;-81
2024/02/16 09:47:58;;;;;;;31.10;20.50;;;;;;;9.59;80.47;100667.17;130672;1257;106975;-81
2024/02/16 09:51:04;;;;;;;27.80;17.80;;;;;;;9.69;80.24;100663.99;130804;1257;107546;-82
2024/02/16 09:54:12;;;;;;;51.30;29.30;;;;;;;9.78;79.99;100665.70;130847;1254;108471;-83
2024/02/16 09:57:20;;;;;;;42.30;24.20;;;;;;;9.86;79.98;100661.98;130984;1256;109341;-81
2024/02/16 10:00:26;;;;;;;33.00;21.20;;;;;;;9.92;79.90;100659.12;130738;1254;108636;-82
2024/02/16 10:03:33;;;;;;;33.90;22.60;;;;;;;9.97;80.01;100654.55;130918;1263;108523;-82
2024/02/16 10:06:50;;;;;;;68.60;40.60;;;;;;;10.02;79.99;100655.67;130817;1253;107285;-82
2024/02/16 10:09:55;;;;;;;25.40;17.60;;;;;;;10.08;79.81;100653.80;130801;1259;107501;-82
2024/02/16 10:13:08;;;;;;;24.50;17.60;;;;;;;10.14;80.15;100653.00;130763;1253;107116;-82
2024/02/16 10:16:14;;;;;;;25.30;16.30;;;;;;;10.27;79.98;100645.76;130793;1256;108005;-82
2024/02/16 10:19:20;;;;;;;23.50;16.50;;;;;;;10.40;79.78;100642.09;130852;1258;107069;-82
2024/02/16 10:22:25;;;;;;;28.50;19.30;;;;;;;10.52;79.60;100636.95;130663;1258;108062;-82
2024/02/16 10:25:31;;;;;;;30.00;19.90;;;;;;;10.60;79.53;100633.85;130747;1264;108655;-82
2024/02/16 10:28:37;;;;;;;27.60;18.20;;;;;;;10.64;79.24;100628.14;130809;1257;107207;-82
2024/02/16 10:31:43;;;;;;;24.30;17.40;;;;;;;10.71;79.43;100627.15;130960;1256;107748;-82
2024/02/16 10:34:50;;;;;;;26.70;17.40;;;;;;;10.77;79.23;100625.86;130831;1258;107196;-83
2024/02/16 10:37:56;;;;;;;25.60;18.00;;;;;;;10.81;79.04;100617.77;130877;1258;107149;-81
2024/02/16 10:41:04;;;;;;;23.20;16.00;;;;;;;10.87;79.22;100613.19;130871;1259;106503;-82
2024/02/16 10:44:10;;;;;;;22.70;15.40;;;;;;;10.92;79.13;100607.13;130839;1254;106518;-82
2024/02/16 10:47:16;;;;;;;18.90;13.60;;;;;;;10.97;79.04;100602.93;130875;1259;107264;-81
2024/02/16 10:50:23;;;;;;;19.20;13.60;;;;;;;11.05;79.02;100601.11;130944;1258;108310;-81
2024/02/16 10:53:31;;;;;;;21.00;14.40;;;;;;;11.15;79.13;100595.70;130810;1253;106553;-82
2024/02/16 10:56:38;;;;;;;21.50;14.70;;;;;;;11.27;78.96;100592.17;130811;1258;108771;-81
2024/02/16 10:59:47;;;;;;;19.00;13.70;;;;;;;11.40;78.53;100586.17;131001;1254;107580;-81
2024/02/16 11:02:59;;;;;;;20.90;14.50;;;;;;;11.50;78.74;100576.59;130880;1256;108707;-82
2024/02/16 11:06:17;;;;;;;20.00;13.50;;;;;;;11.59;78.31;100574.29;130997;1253;107704;-82
2024/02/16 11:09:37;;;;;;;18.50;13.10;;;;;;;11.67;77.98;100570.98;130989;1253;108512;-82
2024/02/16 11:12:46;;;;;;;18.80;13.10;;;;;;;11.72;77.96;100564.11;130963;1253;107646;-82
2024/02/16 11:16:00;;;;;;;20.10;12.90;;;;;;;11.74;77.94;100558.75;130959;1253;106402;-82
2024/02/16 11:19:09;;;;;;;16.70;12.30;;;;;;;11.76;77.75;100556.40;130965;1256;106625;-82
2024/02/16 11:22:18;;;;;;;17.30;11.70;;;;;;;11.80;77.82;100544.09;130904;1256;108571;-82
2024/02/16 11:25:34;;;;;;;15.20;11.70;;;;;;;11.85;77.80;100538.27;130958;1254;107672;-82
2024/02/16 11:28:41;;;;;;;17.70;12.40;;;;;;;11.91;77.82;100538.02;131027;1256;108740;-82
2024/02/16 11:31:47;;;;;;;18.90;12.10;;;;;;;11.96;77.67;100532.13;130867;1256;108455;-82
2024/02/16 11:34:53;;;;;;;16.90;12.30;;;;;;;12.01;77.37;100531.53;131206;1257;108812;-83
2024/02/16 11:37:59;;;;;;;17.60;12.10;;;;;;;12.04;77.36;100522.60;130830;1257;107928;-83
2024/02/16 11:41:07;;;;;;;14.30;11.40;;;;;;;12.12;77.02;100524.80;130828;1259;106686;-82
2024/02/16 11:44:16;;;;;;;17.60;11.90;;;;;;;12.21;77.23;100518.77;130843;1258;106335;-81
2024/02/16 11:47:25;;;;;;;15.50;11.80;;;;;;;12.30;77.07;100510.67;130825;1257;108541;-82
2024/02/16 11:50:30;;;;;;;16.40;11.50;;;;;;;12.38;76.93;100505.79;130901;1257;106413;-81
2024/02/16 11:53:36;;;;;;;15.90;11.10;;;;;;;12.43;76.86;100502.34;130836;1253;107178;-82
2024/02/16 11:56:45;;;;;;;16.80;11.40;;;;;;;12.48;76.73;100499.87;130799;1259;107922;-82
2024/02/16 11:59:51;;;;;;;17.30;12.30;;;;;;;12.53;76.75;100495.80;131011;1257;106809;-82
2024/02/16 12:03:02;;;;;;;16.70;12.40;;;;;;;12.57;76.66;100497.98;130912;1253;108790;-82
2024/02/16 12:06:08;;;;;;;14.90;11.00;;;;;;;12.62;76.48;100495.45;131016;1256;106921;-82
2024/02/16 12:09:17;;;;;;;14.10;10.20;;;;;;;12.66;76.73;100498.58;130964;1256;106918;-82
2024/02/16 12:12:23;;;;;;;11.80;8.50;;;;;;;12.70;76.03;100498.39;130951;1253;108478;-83
2024/02/16 12:15:29;;;;;;;10.00;6.60;;;;;;;12.72;75.78;100497.73;130768;1256;108548;-80
2024/02/16 12:18:35;;;;;;;10.70;7.60;;;;;;;12.75;75.52;100498.73;130809;1259;108617;-81
2024/02/16 12:21:42;;;;;;;8.50;6.40;;;;;;;12.78;75.77;100499.27;131113;1256;107967;-84
2024/02/16 12:24:48;;;;;;;7.80;6.10;;;;;;;12.82;75.53;100490.10;131123;1253;107496;-81
2024/02/16 12:27:53;;;;;;;12.50;8.90;;;;;;;12.86;74.69;100486.87;130970;1256;107548;-82
2024/02/16 12:30:59;;;;;;;10.20;6.50;;;;;;;12.90;74.24;100489.63;130952;1267;107766;-81
2024/02/16 12:34:07;;;;;;;7.80;5.10;;;;;;;12.93;73.73;100479.49;130875;1256;108674;-81
2024/02/16 12:37:13;;;;;;;6.90;4.70;;;;;;;12.95;73.53;100476.68;130897;1256;106754;-81
2024/02/16 12:40:18;;;;;;;8.60;5.80;;;;;;;12.98;73.80;100471.30;130829;1253;106449;-81
2024/02/16 12:43:24;;;;;;;7.30;5.60;;;;;;;13.01;73.40;100467.23;130855;1259;108697;-81
2024/02/16 12:46:30;;;;;;;7.70;4.60;;;;;;;13.04;73.13;100469.58;130879;1259;106473;-82
2024/02/16 12:49:35;;;;;;;7.80;5.80;;;;;;;13.08;73.07;100473.31;130912;1259;108548;-81
2024/02/16 12:52:41;;;;;;;6.80;4.60;;;;;;;13.11;73.10;100467.19;130806;1259;106520;-81
2024/02/16 12:55:47;;;;;;;8.90;5.60;;;;;;;13.14;73.23;100466.33;130820;1257;107677;-81
2024/02/16 12:58:53;;;;;;;7.60;5.30;;;;;;;13.19;72.82;100466.23;130880;1253;107059;-81
2024/02/16 13:02:00;;;;;;;7.30;4.70;;;;;;;13.20;72.61;100460.39;130884;1259;108889;-81
2024/02/16 13:05:06;;;;;;;5.90;4.10;;;;;;;13.21;72.41;100456.52;130946;1256;105755;-81
2024/02/16 13:08:12;;;;;;;5.30;4.10;;;;;;;13.24;71.94;100459.97;130917;1256;106008;-83
2024/02/16 13:11:17;;;;;;;6.60;4.40;;;;;;;13.25;71.91;100454.48;130867;1256;107553;-82
2024/02/16 13:14:23;;;;;;;6.10;4.00;;;;;;;13.27;72.04;100452.66;130920;1253;107750;-82
2024/02/16 13:17:30;;;;;;;6.20;4.60;;;;;;;13.29;72.10;100451.03;130945;1256;106448;-82
2024/02/16 13:20:36;;;;;;;7.00;4.40;;;;;;;13.29;71.79;100446.70;130933;1256;106631;-82
2024/02/16 13:23:41;;;;;;;5.00;4.00;;;;;;;13.31;71.69;100446.54;130898;1256;107887;-81
2024/02/16 13:26:47;;;;;;;5.70;4.30;;;;;;;13.31;71.38;100448.15;130049;1253;1148305;-82
2024/02/16 13:29:53;;;;;;;6.30;4.00;;;;;;;13.30;71.47;100443.05;130884;1253;107276;-82
2024/02/16 13:32:59;;;;;;;5.80;4.10;;;;;;;13.30;71.57;100442.91;130943;1253;108713;-81
2024/02/16 13:36:05;;;;;;;5.50;3.80;;;;;;;13.27;70.99;100438.30;130997;1253;107173;-82
2024/02/16 13:39:11;;;;;;;5.60;3.90;;;;;;;13.27;71.11;100439.40;130940;1256;109391;-82
2024/02/16 13:42:17;;;;;;;6.60;4.50;;;;;;;13.27;71.03;100439.08;130942;1254;108668;-82
2024/02/16 13:45:25;;;;;;;5.20;3.40;;;;;;;13.26;70.84;100436.13;130875;1253;106647;-81
2024/02/16 13:48:31;;;;;;;5.90;4.10;;;;;;;13.25;70.79;100436.56;130907;1268;108321;-82
2024/02/16 13:51:36;;;;;;;5.30;4.00;;;;;;;13.25;70.64;100433.08;130872;1253;107712;-82
2024/02/16 13:54:42;;;;;;;6.30;4.20;;;;;;;13.22;70.45;100427.81;130900;1256;108885;-81
2024/02/16 13:57:48;;;;;;;6.90;4.10;;;;;;;13.22;70.69;100431.40;130941;1256;107782;-81